Capitol Logistics 940


EHAM
Schiphol International Airport
Amsterdam, NL
EGNX
East Midlands Airport
Derby, GB

Activity Log

Date Flight Route Aircraft Duration
No Flights Yet

Route Details

Aircraft Information
Primary: Boeing 737-800BCF
Backup: Not Available
Route Data
Distance: 226nm
Sched. Duration: 0h 45m
Avg. Duration: 0h 00m (-45m)
Times Flown: 0
Recm'd Route: Not Available
Planned Altitude: 24,000ft
Origin Wx: EHAM 281055Z 19011KT CAVOK 06/03 Q1014 NOSIG
Dest. Wx: EGNX 281050Z 14015KT 9000 RA SCT006 BKN009 03/02 Q1002
Notes:

Financial History
Total Freight: 0lbs
Average Load: 0lbs/flt
Fuel Used: 0lbs
Avg. Fuel Used: 0lbs/flt
Fuel Expense: $0
Avg. Fuel Expense: $0
Avg. Fuel Cost: $0/lbs
Total Gross Income: $0
Pilot Pay: $0
Total Expenses: $0
Total Revenue: $0
Average Revenue: $0